Time,TemperatureF,DewpointF,PressureIn,WindDirection,WindDirectionDegrees,WindSpeedMPH,WindSpeedGustMPH,Humidity,HourlyPrecipIn,Conditions,Clouds,dailyrainin,SoftwareType,DateUTC
2013-07-09 00:01:00,72.0,70.8,29.92,South,186,2.0,6.0,96,0.02,,,0.00,VWS V13.01,2013-07-09 04:01:00,
2013-07-09 00:03:00,72.0,70.8,29.92,South,186,1.0,5.0,96,0.01,,,0.00,VWS V13.01,2013-07-09 04:03:00,
2013-07-09 00:08:00,71.9,70.7,29.92,South,187,2.0,3.0,96,0.01,,,0.00,VWS V13.01,2013-07-09 04:08:00,
2013-07-09 00:13:00,71.9,70.7,29.92,South,187,0.0,3.0,96,0.01,,,0.00,VWS V13.01,2013-07-09 04:13:00,
2013-07-09 00:18:00,71.9,70.7,29.92,WSW,238,2.0,3.0,96,0.01,,,0.00,VWS V13.01,2013-07-09 04:18:00,
2013-07-09 00:23:00,71.8,70.6,29.92,WSW,238,2.0,4.0,96,0.01,,,0.00,VWS V13.01,2013-07-09 04:23:00,
2013-07-09 00:28:00,71.7,70.5,29.92,WSW,248,0.0,3.0,96,0.01,,,0.00,VWS V13.01,2013-07-09 04:28:00,
2013-07-09 00:33:00,71.7,70.5,29.92,NNW,331,3.0,4.0,96,0.00,,,0.00,VWS V13.01,2013-07-09 04:33:00,
2013-07-09 00:38:00,71.6,70.4,29.92,WNW,302,1.0,3.0,96,0.00,,,0.00,VWS V13.01,2013-07-09 04:38:00,
2013-07-09 00:43:00,71.6,70.4,29.92,WNW,302,0.0,2.0,96,0.00,,,0.00,VWS V13.01,2013-07-09 04:43:00,
2013-07-09 00:48:00,71.6,70.4,29.92,WNW,293,1.0,4.0,96,0.00,,,0.00,VWS V13.01,2013-07-09 04:48:00,
2013-07-09 00:53:00,71.5,70.6,29.92,WNW,290,2.0,4.0,97,0.00,,,0.00,VWS V13.01,2013-07-09 04:53:00,
2013-07-09 00:58:00,71.4,70.2,29.92,WNW,290,0.0,4.0,96,0.00,,,0.00,VWS V13.01,2013-07-09 04:58:00,
2013-07-09 01:03:00,71.3,70.4,29.92,WNW,290,0.0,1.0,97,0.00,,,0.00,VWS V13.01,2013-07-09 05:03:00,
2013-07-09 01:08:00,71.3,70.4,29.92,WNW,290,0.0,2.0,97,0.00,,,0.00,VWS V13.01,2013-07-09 05:08:00,
2013-07-09 01:13:00,71.2,70.3,29.92,WNW,290,0.0,1.0,97,0.00,,,0.00,VWS V13.01,2013-07-09 05:13:00,
2013-07-09 01:18:00,71.3,70.4,29.92,WNW,290,2.0,3.0,97,0.00,,,0.00,VWS V13.01,2013-07-09 05:18:00,
2013-07-09 01:23:00,71.3,70.4,29.92,WNW,290,1.0,4.0,97,0.00,,,0.00,VWS V13.01,2013-07-09 05:23:00,
2013-07-09 01:28:00,71.2,70.3,29.92,WNW,290,1.0,2.0,97,0.00,,,0.00,VWS V13.01,2013-07-09 05:28:00,
2013-07-09 01:33:00,71.2,70.3,29.92,WNW,290,0.0,1.0,97,0.00,,,0.00,VWS V13.01,2013-07-09 05:33:00,
2013-07-09 01:38:00,71.2,70.3,29.92,WNW,290,2.0,2.0,97,0.00,,,0.00,VWS V13.01,2013-07-09 05:38:00,
2013-07-09 01:43:00,71.2,70.3,29.92,WNW,290,0.0,3.0,97,0.00,,,0.00,VWS V13.01,2013-07-09 05:43:00,
2013-07-09 01:48:00,71.2,70.3,29.92,WNW,290,0.0,1.0,97,0.00,,,0.00,VWS V13.01,2013-07-09 05:48:00,
2013-07-09 01:53:00,71.1,70.2,29.92,WNW,290,0.0,0.0,97,0.00,,,0.00,VWS V13.01,2013-07-09 05:53:00,
2013-07-09 01:58:00,71.0,70.1,29.92,WNW,290,2.0,2.0,97,0.00,,,0.00,VWS V13.01,2013-07-09 05:58:00,
2013-07-09 02:03:00,71.0,70.1,29.92,WSW,251,2.0,5.0,97,0.00,,,0.00,VWS V13.01,2013-07-09 06:03:00,
2013-07-09 02:08:00,70.9,70.0,29.92,WSW,251,0.0,3.0,97,0.00,,,0.00,VWS V13.01,2013-07-09 06:08:00,
2013-07-09 02:13:00,70.8,69.9,29.92,WSW,251,0.0,0.0,97,0.00,,,0.00,VWS V13.01,2013-07-09 06:13:00,
2013-07-09 02:18:00,70.7,69.8,29.92,WSW,251,0.0,0.0,97,0.00,,,0.00,VWS V13.01,2013-07-09 06:18:00,
2013-07-09 02:23:00,70.7,69.8,29.92,WSW,251,0.0,0.0,97,0.00,,,0.00,VWS V13.01,2013-07-09 06:23:00,
2013-07-09 02:28:00,70.7,69.8,29.92,WSW,251,0.0,1.0,97,0.00,,,0.00,VWS V13.01,2013-07-09 06:28:00,
2013-07-09 02:33:00,70.7,69.8,29.92,WSW,251,0.0,0.0,97,0.00,,,0.00,VWS V13.01,2013-07-09 06:33:00,
2013-07-09 02:38:00,70.6,69.7,29.92,WSW,251,0.0,0.0,97,0.00,,,0.00,VWS V13.01,2013-07-09 06:38:00,
2013-07-09 02:44:00,70.5,69.6,29.92,WSW,251,0.0,1.0,97,0.00,,,0.00,VWS V13.01,2013-07-09 06:44:00,
2013-07-09 02:49:00,70.5,69.6,29.92,WSW,251,0.0,2.0,97,0.00,,,0.00,VWS V13.01,2013-07-09 06:49:00,
2013-07-09 02:54:00,70.5,69.6,29.92,WSW,251,0.0,2.0,97,0.00,,,0.00,VWS V13.01,2013-07-09 06:54:00,
2013-07-09 02:59:00,70.6,70.0,29.92,WSW,251,1.0,3.0,98,0.00,,,0.00,VWS V13.01,2013-07-09 06:59:00,
2013-07-09 03:04:00,70.6,69.7,29.92,WSW,251,0.0,2.0,97,0.00,,,0.00,VWS V13.01,2013-07-09 07:04:00,
2013-07-09 03:09:00,70.5,69.6,29.92,WSW,251,1.0,1.0,97,0.00,,,0.00,VWS V13.01,2013-07-09 07:09:00,
2013-07-09 03:14:00,70.4,69.5,29.92,WSW,251,0.0,1.0,97,0.00,,,0.00,VWS V13.01,2013-07-09 07:14:00,
2013-07-09 03:19:00,70.4,69.8,29.92,WSW,251,0.0,0.0,98,0.00,,,0.00,VWS V13.01,2013-07-09 07:19:00,
2013-07-09 03:24:00,70.4,69.5,29.92,WSW,251,0.0,0.0,97,0.00,,,0.00,VWS V13.01,2013-07-09 07:24:00,
2013-07-09 03:29:00,70.3,69.4,29.92,WSW,251,0.0,0.0,97,0.00,,,0.00,VWS V13.01,2013-07-09 07:29:00,
2013-07-09 03:34:00,70.2,69.3,29.92,WSW,251,0.0,1.0,97,0.00,,,0.00,VWS V13.01,2013-07-09 07:34:00,
2013-07-09 03:39:00,70.2,69.3,29.92,WSW,251,0.0,1.0,97,0.00,,,0.00,VWS V13.01,2013-07-09 07:39:00,
2013-07-09 03:44:00,70.1,69.5,29.92,WSW,251,0.0,0.0,98,0.00,,,0.00,VWS V13.01,2013-07-09 07:44:00,
2013-07-09 03:53:00,70.1,69.5,29.92,WSW,251,0.0,0.0,98,0.00,,,0.00,VWS V13.01,2013-07-09 07:53:00,
2013-07-09 03:58:00,70.1,69.5,29.92,WSW,251,0.0,0.0,98,0.00,,,0.00,VWS V13.01,2013-07-09 07:58:00,
2013-07-09 04:03:00,70.2,69.6,29.92,WSW,251,0.0,1.0,98,0.00,,,0.00,VWS V13.01,2013-07-09 08:03:00,
2013-07-09 04:08:00,70.2,69.6,29.92,WSW,251,0.0,2.0,98,0.00,,,0.00,VWS V13.01,2013-07-09 08:08:00,
2013-07-09 04:13:00,70.1,69.5,29.92,WSW,251,0.0,1.0,98,0.00,,,0.00,VWS V13.01,2013-07-09 08:13:00,
2013-07-09 04:18:00,69.9,69.3,29.92,WSW,251,0.0,2.0,98,0.00,,,0.00,VWS V13.01,2013-07-09 08:18:00,
2013-07-09 04:23:00,69.9,69.3,29.92,WSW,251,0.0,1.0,98,0.00,,,0.00,VWS V13.01,2013-07-09 08:23:00,
2013-07-09 04:28:00,69.9,69.3,29.92,WSW,251,0.0,1.0,98,0.00,,,0.00,VWS V13.01,2013-07-09 08:28:00,
2013-07-09 04:33:00,69.9,69.3,29.92,WSW,251,0.0,0.0,98,0.00,,,0.00,VWS V13.01,2013-07-09 08:33:00,
2013-07-09 04:38:00,69.9,69.3,29.92,WSW,251,0.0,0.0,98,0.00,,,0.00,VWS V13.01,2013-07-09 08:38:00,
2013-07-09 04:43:00,69.9,69.3,29.92,WSW,251,0.0,1.0,98,0.00,,,0.00,VWS V13.01,2013-07-09 08:43:00,
2013-07-09 04:48:00,69.8,69.2,29.92,WSW,251,0.0,2.0,98,0.00,,,0.00,VWS V13.01,2013-07-09 08:48:00,
2013-07-09 04:53:00,69.7,69.1,29.91,WSW,251,0.0,2.0,98,0.00,,,0.00,VWS V13.01,2013-07-09 08:53:00,
2013-07-09 04:58:00,69.7,69.1,29.91,WSW,251,0.0,1.0,98,0.00,,,0.00,VWS V13.01,2013-07-09 08:58:00,
2013-07-09 05:03:00,69.6,69.0,29.92,WSW,251,0.0,0.0,98,0.00,,,0.00,VWS V13.01,2013-07-09 09:03:00,
2013-07-09 05:08:00,69.6,69.0,29.92,WSW,251,0.0,2.0,98,0.00,,,0.00,VWS V13.01,2013-07-09 09:08:00,
2013-07-09 05:13:00,69.5,68.9,29.92,WSW,251,0.0,0.0,98,0.00,,,0.00,VWS V13.01,2013-07-09 09:13:00,
2013-07-09 05:18:00,69.5,68.9,29.92,WSW,251,0.0,0.0,98,0.00,,,0.00,VWS V13.01,2013-07-09 09:18:00,
2013-07-09 05:23:00,69.5,68.9,29.92,WSW,251,0.0,1.0,98,0.00,,,0.00,VWS V13.01,2013-07-09 09:23:00,
2013-07-09 05:28:00,69.5,68.9,29.92,WSW,251,0.0,0.0,98,0.00,,,0.00,VWS V13.01,2013-07-09 09:28:00,
2013-07-09 05:33:00,69.4,68.8,29.92,WSW,251,0.0,1.0,98,0.00,,,0.00,VWS V13.01,2013-07-09 09:33:00,
2013-07-09 05:38:00,69.4,68.8,29.93,WSW,251,0.0,1.0,98,0.00,,,0.00,VWS V13.01,2013-07-09 09:38:00,
2013-07-09 05:43:00,69.3,68.7,29.92,WSW,251,0.0,1.0,98,0.00,,,0.00,VWS V13.01,2013-07-09 09:43:00,
2013-07-09 05:48:00,69.2,68.6,29.92,WSW,251,0.0,1.0,98,0.00,,,0.00,VWS V13.01,2013-07-09 09:48:00,
2013-07-09 05:53:00,69.2,68.6,29.93,WSW,251,0.0,1.0,98,0.00,,,0.00,VWS V13.01,2013-07-09 09:53:00,
2013-07-09 05:58:00,69.1,68.5,29.92,WSW,251,0.0,2.0,98,0.00,,,0.00,VWS V13.01,2013-07-09 09:58:00,
2013-07-09 06:04:00,69.0,68.4,29.92,WSW,251,0.0,2.0,98,0.00,,,0.00,VWS V13.01,2013-07-09 10:04:00,
2013-07-09 06:09:00,69.0,68.4,29.92,WSW,251,0.0,1.0,98,0.00,,,0.00,VWS V13.01,2013-07-09 10:09:00,
2013-07-09 06:14:00,69.0,68.4,29.92,WSW,251,0.0,0.0,98,0.00,,,0.00,VWS V13.01,2013-07-09 10:14:00,
2013-07-09 06:19:00,69.0,68.4,29.92,WSW,251,0.0,0.0,98,0.00,,,0.00,VWS V13.01,2013-07-09 10:19:00,
2013-07-09 06:24:00,68.9,68.3,29.92,WSW,251,0.0,0.0,98,0.00,,,0.00,VWS V13.01,2013-07-09 10:24:00,
2013-07-09 06:29:00,68.9,68.3,29.93,WSW,251,0.0,0.0,98,0.00,,,0.00,VWS V13.01,2013-07-09 10:29:00,
2013-07-09 06:34:00,68.9,68.3,29.93,WSW,251,0.0,0.0,98,0.00,,,0.00,VWS V13.01,2013-07-09 10:34:00,
2013-07-09 06:39:00,68.9,68.3,29.93,WSW,251,0.0,0.0,98,0.00,,,0.00,VWS V13.01,2013-07-09 10:39:00,
2013-07-09 06:44:00,68.9,68.3,29.93,WSW,251,0.0,0.0,98,0.00,,,0.00,VWS V13.01,2013-07-09 10:44:00,
2013-07-09 06:49:00,69.0,68.4,29.93,WSW,251,0.0,1.0,98,0.00,,,0.00,VWS V13.01,2013-07-09 10:49:00,
2013-07-09 06:54:00,69.1,68.5,29.93,WSW,251,0.0,0.0,98,0.00,,,0.00,VWS V13.01,2013-07-09 10:54:00,
2013-07-09 06:59:00,69.1,68.5,29.93,WSW,251,1.0,1.0,98,0.00,,,0.00,VWS V13.01,2013-07-09 10:59:00,
2013-07-09 07:04:00,69.2,68.6,29.93,WSW,251,0.0,3.0,98,0.00,,,0.00,VWS V13.01,2013-07-09 11:04:00,
2013-07-09 07:09:00,69.2,68.6,29.93,WSW,251,0.0,2.0,98,0.00,,,0.00,VWS V13.01,2013-07-09 11:09:00,
2013-07-09 07:14:00,69.2,68.6,29.93,WSW,251,0.0,2.0,98,0.00,,,0.00,VWS V13.01,2013-07-09 11:14:00,
2013-07-09 07:19:00,69.3,68.7,29.93,WSW,251,0.0,0.0,98,0.00,,,0.00,VWS V13.01,2013-07-09 11:19:00,
2013-07-09 07:24:00,69.2,68.6,29.93,WSW,251,0.0,1.0,98,0.00,,,0.00,VWS V13.01,2013-07-09 11:24:00,
2013-07-09 07:29:00,69.2,68.6,29.93,WSW,251,0.0,0.0,98,0.00,,,0.00,VWS V13.01,2013-07-09 11:29:00,
2013-07-09 07:34:00,69.3,68.7,29.93,WSW,251,0.0,1.0,98,0.00,,,0.00,VWS V13.01,2013-07-09 11:34:00,
2013-07-09 07:39:00,69.4,68.8,29.93,WSW,251,0.0,0.0,98,0.00,,,0.00,VWS V13.01,2013-07-09 11:39:00,
2013-07-09 07:44:00,69.5,68.9,29.94,WSW,251,0.0,0.0,98,0.00,,,0.00,VWS V13.01,2013-07-09 11:44:00,
2013-07-09 07:49:00,69.6,69.0,29.93,WSW,251,0.0,0.0,98,0.00,,,0.00,VWS V13.01,2013-07-09 11:49:00,
2013-07-09 07:54:00,69.8,69.2,29.93,WSW,251,0.0,0.0,98,0.00,,,0.00,VWS V13.01,2013-07-09 11:54:00,
2013-07-09 07:59:00,70.1,69.5,29.93,WSW,251,0.0,0.0,98,0.00,,,0.00,VWS V13.01,2013-07-09 11:59:00,
2013-07-09 08:05:00,70.4,69.8,29.93,WSW,251,0.0,1.0,98,0.00,,,0.00,VWS V13.01,2013-07-09 12:05:00,
2013-07-09 08:10:00,70.4,69.8,29.93,WSW,251,0.0,0.0,98,0.00,,,0.00,VWS V13.01,2013-07-09 12:10:00,
2013-07-09 08:15:00,70.4,69.8,29.94,WSW,251,0.0,0.0,98,0.00,,,0.00,VWS V13.01,2013-07-09 12:15:00,
2013-07-09 08:20:00,70.3,69.4,29.94,WSW,251,0.0,0.0,97,0.00,,,0.00,VWS V13.01,2013-07-09 12:20:00,
2013-07-09 08:25:00,70.4,69.5,29.93,WSW,251,0.0,0.0,97,0.00,,,0.00,VWS V13.01,2013-07-09 12:25:00,
2013-07-09 08:30:00,70.4,69.5,29.93,WSW,251,0.0,1.0,97,0.00,,,0.00,VWS V13.01,2013-07-09 12:30:00,
2013-07-09 08:35:00,70.4,69.5,29.93,WSW,251,0.0,1.0,97,0.00,,,0.00,VWS V13.01,2013-07-09 12:35:00,
2013-07-09 08:40:00,70.5,69.9,29.93,WSW,251,0.0,3.0,98,0.00,,,0.00,VWS V13.01,2013-07-09 12:40:00,
2013-07-09 08:45:00,70.5,69.6,29.94,WSW,251,0.0,1.0,97,0.00,,,0.00,VWS V13.01,2013-07-09 12:45:00,
2013-07-09 08:50:00,70.5,69.6,29.94,WSW,251,0.0,1.0,97,0.00,,,0.00,VWS V13.01,2013-07-09 12:50:00,
2013-07-09 08:55:00,70.7,70.1,29.93,WSW,251,1.0,2.0,98,0.00,,,0.00,VWS V13.01,2013-07-09 12:55:00,
2013-07-09 09:00:00,70.8,69.9,29.93,WSW,251,0.0,1.0,97,0.00,,,0.00,VWS V13.01,2013-07-09 13:00:00,
2013-07-09 09:05:00,70.8,69.9,29.93,WSW,251,0.0,1.0,97,0.00,,,0.00,VWS V13.01,2013-07-09 13:05:00,
2013-07-09 09:10:00,70.7,69.5,29.93,WSW,251,0.0,1.0,96,0.00,,,0.00,VWS V13.01,2013-07-09 13:10:00,
2013-07-09 09:15:00,70.7,69.5,29.93,WSW,251,0.0,1.0,96,0.00,,,0.00,VWS V13.01,2013-07-09 13:15:00,
2013-07-09 09:20:00,70.7,69.5,29.94,WSW,251,1.0,2.0,96,0.00,,,0.00,VWS V13.01,2013-07-09 13:20:00,
2013-07-09 09:25:00,70.6,69.4,29.93,WSW,251,1.0,1.0,96,0.00,,,0.00,VWS V13.01,2013-07-09 13:25:00,
2013-07-09 09:30:00,70.5,69.3,29.94,WSW,251,0.0,2.0,96,0.00,,,0.00,VWS V13.01,2013-07-09 13:30:00,
2013-07-09 09:35:00,70.5,69.3,29.93,WSW,251,0.0,1.0,96,0.00,,,0.00,VWS V13.01,2013-07-09 13:35:00,
2013-07-09 09:40:00,70.4,69.2,29.93,WSW,251,0.0,1.0,96,0.00,,,0.00,VWS V13.01,2013-07-09 13:40:00,
2013-07-09 09:45:00,70.5,69.3,29.93,WSW,251,0.0,0.0,96,0.00,,,0.00,VWS V13.01,2013-07-09 13:45:00,
2013-07-09 09:50:00,70.5,69.0,29.93,WSW,251,0.0,0.0,95,0.00,,,0.00,VWS V13.01,2013-07-09 13:50:00,
2013-07-09 09:55:00,70.5,69.0,29.93,WSW,251,2.0,3.0,95,0.00,,,0.00,VWS V13.01,2013-07-09 13:55:00,
2013-07-09 10:00:00,70.5,69.3,29.93,East,99,6.0,6.0,96,0.00,,,0.00,VWS V13.01,2013-07-09 14:00:00,
2013-07-09 10:05:00,70.4,69.2,29.93,East,101,3.0,6.0,96,0.00,,,0.00,VWS V13.01,2013-07-09 14:05:00,
2013-07-09 10:10:00,70.3,69.1,29.92,East,101,1.0,5.0,96,0.00,,,0.00,VWS V13.01,2013-07-09 14:10:00,
2013-07-09 10:15:00,70.2,69.0,29.92,East,101,3.0,5.0,96,0.00,,,0.00,VWS V13.01,2013-07-09 14:15:00,
2013-07-09 10:20:00,70.1,68.9,29.92,East,101,2.0,5.0,96,0.00,,,0.00,VWS V13.01,2013-07-09 14:20:00,
2013-07-09 10:25:00,70.1,68.9,29.92,East,101,2.0,3.0,96,0.00,,,0.00,VWS V13.01,2013-07-09 14:25:00,
2013-07-09 10:30:00,70.1,68.9,29.92,East,101,1.0,3.0,96,0.00,,,0.00,VWS V13.01,2013-07-09 14:30:00,
2013-07-09 10:35:00,70.1,68.9,29.93,East,101,2.0,3.0,96,0.00,,,0.00,VWS V13.01,2013-07-09 14:35:00,
2013-07-09 10:40:00,70.2,69.0,29.93,East,101,2.0,3.0,96,0.00,,,0.00,VWS V13.01,2013-07-09 14:40:00,
2013-07-09 10:45:00,70.2,69.0,29.93,East,101,0.0,3.0,96,0.00,,,0.00,VWS V13.01,2013-07-09 14:45:00,
2013-07-09 10:50:00,70.2,69.0,29.93,East,101,1.0,2.0,96,0.00,,,0.00,VWS V13.01,2013-07-09 14:50:00,
2013-07-09 10:55:00,70.2,69.0,29.93,East,101,2.0,2.0,96,0.00,,,0.00,VWS V13.01,2013-07-09 14:55:00,
2013-07-09 11:01:00,70.2,69.0,29.93,East,101,0.0,3.0,96,0.00,,,0.00,VWS V13.01,2013-07-09 15:01:00,
2013-07-09 11:06:00,70.1,68.9,29.93,East,101,0.0,2.0,96,0.00,,,0.00,VWS V13.01,2013-07-09 15:06:00,
2013-07-09 11:11:00,70.1,68.9,29.93,East,101,1.0,2.0,96,0.00,,,0.00,VWS V13.01,2013-07-09 15:11:00,
2013-07-09 11:16:00,70.2,69.0,29.93,East,101,2.0,3.0,96,0.00,,,0.00,VWS V13.01,2013-07-09 15:16:00,
2013-07-09 11:21:00,70.2,69.0,29.93,East,101,1.0,3.0,96,0.00,,,0.00,VWS V13.01,2013-07-09 15:21:00,
2013-07-09 11:26:00,70.1,68.9,29.93,East,101,2.0,3.0,96,0.00,,,0.00,VWS V13.01,2013-07-09 15:26:00,
2013-07-09 11:31:00,70.1,68.9,29.93,East,101,1.0,2.0,96,0.00,,,0.00,VWS V13.01,2013-07-09 15:31:00,
2013-07-09 11:36:00,70.1,68.9,29.93,East,101,0.0,2.0,96,0.00,,,0.00,VWS V13.01,2013-07-09 15:36:00,
2013-07-09 11:41:00,70.1,68.9,29.93,East,101,2.0,3.0,96,0.00,,,0.00,VWS V13.01,2013-07-09 15:41:00,
2013-07-09 11:46:00,70.1,68.9,29.93,East,101,2.0,3.0,96,0.00,,,0.00,VWS V13.01,2013-07-09 15:46:00,
2013-07-09 11:51:00,70.0,68.8,29.93,East,101,1.0,2.0,96,0.00,,,0.00,VWS V13.01,2013-07-09 15:51:00,
2013-07-09 11:56:00,70.1,68.9,29.94,East,101,1.0,3.0,96,0.00,,,0.00,VWS V13.01,2013-07-09 15:56:00,
2013-07-09 12:01:00,70.1,68.9,29.93,East,101,2.0,5.0,96,0.00,,,0.00,VWS V13.01,2013-07-09 16:01:00,
2013-07-09 12:06:00,70.1,68.9,29.94,East,101,2.0,3.0,96,0.00,,OVC004,0.00,VWS V13.01,2013-07-09 16:06:00,
2013-07-09 12:11:00,70.2,69.0,29.93,East,101,2.0,3.0,96,0.00,,OVC004,0.00,VWS V13.01,2013-07-09 16:11:00,
2013-07-09 12:16:00,70.2,69.0,29.93,SE,140,4.0,5.0,96,0.00,,OVC004,0.00,VWS V13.01,2013-07-09 16:16:00,
2013-07-09 12:21:00,70.3,69.1,29.93,SE,143,3.0,4.0,96,0.00,,OVC004,0.00,VWS V13.01,2013-07-09 16:21:00,
2013-07-09 12:26:00,70.2,69.0,29.93,SE,143,2.0,3.0,96,0.00,,OVC004,0.00,VWS V13.01,2013-07-09 16:26:00,
2013-07-09 12:31:00,70.2,69.0,29.93,SE,143,2.0,3.0,96,0.00,,OVC004,0.00,VWS V13.01,2013-07-09 16:31:00,
2013-07-09 12:36:00,70.3,69.1,29.93,SSE,148,2.0,4.0,96,0.00,,OVC004,0.00,VWS V13.01,2013-07-09 16:36:00,
2013-07-09 12:41:00,70.4,69.2,29.93,SSE,148,2.0,4.0,96,0.00,,OVC004,0.00,VWS V13.01,2013-07-09 16:41:00,
2013-07-09 12:46:00,70.4,69.2,29.93,SSE,148,3.0,3.0,96,0.00,,OVC004,0.00,VWS V13.01,2013-07-09 16:46:00,
2013-07-09 12:52:00,70.5,69.3,29.93,SSE,150,2.0,4.0,96,0.00,,OVC004,0.00,VWS V13.01,2013-07-09 16:52:00,
2013-07-09 12:57:00,70.5,69.0,29.93,SSE,150,2.0,4.0,95,0.00,,OVC004,0.00,VWS V13.01,2013-07-09 16:57:00,
2013-07-09 13:02:00,70.6,69.1,29.93,SSE,150,2.0,3.0,95,0.00,,OVC004,0.00,VWS V13.01,2013-07-09 17:02:00,
2013-07-09 13:07:00,70.8,69.3,29.93,SSE,150,3.0,4.0,95,0.00,,OVC004,0.00,VWS V13.01,2013-07-09 17:07:00,
2013-07-09 13:12:00,70.9,69.4,29.93,SSE,164,4.0,5.0,95,0.00,,OVC004,0.00,VWS V13.01,2013-07-09 17:12:00,
2013-07-09 13:17:00,71.0,69.5,29.92,South,175,5.0,6.0,95,0.00,,OVC004,0.00,VWS V13.01,2013-07-09 17:17:00,
2013-07-09 13:22:00,71.1,69.3,29.92,South,175,5.0,6.0,94,0.00,,OVC004,0.00,VWS V13.01,2013-07-09 17:22:00,
2013-07-09 13:27:00,71.2,69.4,29.92,South,175,4.0,6.0,94,0.00,,OVC004,0.00,VWS V13.01,2013-07-09 17:27:00,
2013-07-09 13:32:00,71.4,69.6,29.93,South,188,5.0,7.0,94,0.00,,OVC004,0.00,VWS V13.01,2013-07-09 17:32:00,
2013-07-09 13:37:00,71.5,69.7,29.92,South,171,5.0,7.0,94,0.00,,OVC004,0.00,VWS V13.01,2013-07-09 17:37:00,
2013-07-09 13:42:00,71.6,69.8,29.92,South,171,5.0,7.0,94,0.00,,OVC004,0.00,VWS V13.01,2013-07-09 17:42:00,
2013-07-09 13:47:00,71.7,69.9,29.92,SSE,164,5.0,6.0,94,0.00,,OVC004,0.00,VWS V13.01,2013-07-09 17:47:00,
2013-07-09 13:52:00,71.8,70.0,29.92,SSE,163,5.0,6.0,94,0.00,,OVC004,0.00,VWS V13.01,2013-07-09 17:52:00,
2013-07-09 13:57:00,71.9,70.1,29.92,SSE,156,6.0,6.0,94,0.00,,OVC004,0.00,VWS V13.01,2013-07-09 17:57:00,
2013-07-09 14:02:00,72.1,70.3,29.92,SSE,157,5.0,6.0,94,0.00,,OVC004,0.00,VWS V13.01,2013-07-09 18:02:00,
2013-07-09 14:07:00,72.2,70.4,29.92,SSE,161,4.0,6.0,94,0.00,,OVC006,0.00,VWS V13.01,2013-07-09 18:07:00,
2013-07-09 14:12:00,72.2,70.4,29.92,SSE,161,3.0,6.0,94,0.00,,OVC006,0.00,VWS V13.01,2013-07-09 18:12:00,
2013-07-09 14:17:00,72.3,70.5,29.92,SSE,161,3.0,5.0,94,0.00,,OVC006,0.00,VWS V13.01,2013-07-09 18:17:00,
2013-07-09 14:22:00,72.4,70.3,29.92,SSE,161,4.0,5.0,93,0.00,,OVC006,0.00,VWS V13.01,2013-07-09 18:22:00,
2013-07-09 14:27:00,72.5,70.7,29.92,SSE,161,3.0,5.0,94,0.00,,OVC006,0.00,VWS V13.01,2013-07-09 18:27:00,
2013-07-09 14:32:00,72.5,70.4,29.92,SSE,159,4.0,6.0,93,0.00,,OVC006,0.00,VWS V13.01,2013-07-09 18:32:00,
2013-07-09 14:37:00,72.5,70.4,29.92,SSE,155,4.0,5.0,93,0.00,,OVC006,0.00,VWS V13.01,2013-07-09 18:37:00,
2013-07-09 14:42:00,72.5,70.4,29.91,SSE,157,5.0,5.0,93,0.00,,OVC006,0.00,VWS V13.01,2013-07-09 18:42:00,
2013-07-09 14:47:00,72.6,70.5,29.91,SSE,157,5.0,6.0,93,0.00,,OVC006,0.00,VWS V13.01,2013-07-09 18:47:00,
2013-07-09 14:52:00,72.8,70.7,29.91,SSE,157,4.0,6.0,93,0.00,,OVC006,0.00,VWS V13.01,2013-07-09 18:52:00,
2013-07-09 14:57:00,73.1,71.0,29.91,SSE,154,4.0,5.0,93,0.00,,OVC006,0.00,VWS V13.01,2013-07-09 18:57:00,
2013-07-09 15:02:00,73.4,70.9,29.91,SSE,155,4.0,6.0,92,0.00,,OVC006,0.00,VWS V13.01,2013-07-09 19:02:00,
2013-07-09 15:07:00,73.6,71.1,29.90,SSE,153,4.0,6.0,92,0.00,,OVC008,0.00,VWS V13.01,2013-07-09 19:07:00,
2013-07-09 15:12:00,73.9,71.1,29.90,SSE,151,5.0,5.0,91,0.00,,OVC008,0.00,VWS V13.01,2013-07-09 19:12:00,
2013-07-09 15:17:00,73.8,70.7,29.90,SSE,159,4.0,6.0,90,0.00,,OVC008,0.00,VWS V13.01,2013-07-09 19:17:00,
2013-07-09 15:22:00,73.6,70.8,29.90,SSE,159,6.0,6.0,91,0.00,,OVC008,0.00,VWS V13.01,2013-07-09 19:22:00,
2013-07-09 15:27:00,73.5,71.0,29.90,SSE,155,6.0,7.0,92,0.00,,OVC008,0.00,VWS V13.01,2013-07-09 19:27:00,
2013-07-09 15:32:00,73.3,70.5,29.90,SSE,164,6.0,7.0,91,0.00,,OVC008,0.00,VWS V13.01,2013-07-09 19:32:00,
2013-07-09 15:37:00,73.3,70.5,29.90,South,169,4.0,8.0,91,0.00,,OVC008,0.00,VWS V13.01,2013-07-09 19:37:00,
2013-07-09 15:42:00,73.3,70.8,29.89,SSE,168,4.0,7.0,92,0.00,,OVC008,0.00,VWS V13.01,2013-07-09 19:42:00,
2013-07-09 15:47:00,73.6,71.1,29.89,SSE,147,5.0,6.0,92,0.00,,OVC008,0.00,VWS V13.01,2013-07-09 19:47:00,
2013-07-09 15:52:00,73.7,71.2,29.89,SSE,157,6.0,6.0,92,0.00,,OVC008,0.00,VWS V13.01,2013-07-09 19:52:00,
2013-07-09 15:57:00,73.7,71.2,29.88,SSE,154,6.0,7.0,92,0.00,,OVC008,0.00,VWS V13.01,2013-07-09 19:57:00,
2013-07-09 16:02:00,73.7,71.2,29.88,SSE,148,5.0,8.0,92,0.00,,OVC008,0.00,VWS V13.01,2013-07-09 20:02:00,
2013-07-09 16:07:00,73.8,71.3,29.88,SSE,147,5.0,7.0,92,0.00,,OVC047,0.00,VWS V13.01,2013-07-09 20:07:00,
2013-07-09 16:12:00,74.0,71.5,29.88,SE,145,6.0,7.0,92,0.00,,OVC047,0.00,VWS V13.01,2013-07-09 20:12:00,
2013-07-09 16:17:00,74.0,71.5,29.88,SSE,149,7.0,8.0,92,0.00,,OVC047,0.00,VWS V13.01,2013-07-09 20:17:00,
2013-07-09 16:23:00,74.2,71.7,29.87,SE,141,6.0,7.0,92,0.00,,OVC047,0.00,VWS V13.01,2013-07-09 20:23:00,
2013-07-09 16:28:00,74.3,71.5,29.87,SSE,148,6.0,7.0,91,0.00,,OVC047,0.00,VWS V13.01,2013-07-09 20:28:00,
2013-07-09 16:33:00,74.4,71.9,29.87,SSE,150,5.0,7.0,92,0.00,,OVC047,0.00,VWS V13.01,2013-07-09 20:33:00,
2013-07-09 16:38:00,74.5,71.7,29.87,SSE,148,4.0,6.0,91,0.00,,OVC047,0.00,VWS V13.01,2013-07-09 20:38:00,
2013-07-09 16:43:00,74.4,71.6,29.87,SSE,150,5.0,7.0,91,0.00,,OVC047,0.00,VWS V13.01,2013-07-09 20:43:00,
2013-07-09 16:48:00,74.3,71.5,29.87,SSE,156,6.0,7.0,91,0.00,,OVC047,0.00,VWS V13.01,2013-07-09 20:48:00,
2013-07-09 16:53:00,74.2,71.4,29.87,SSE,154,4.0,8.0,91,0.00,,OVC047,0.00,VWS V13.01,2013-07-09 20:53:00,
2013-07-09 16:58:00,74.2,71.4,29.87,SSE,151,5.0,7.0,91,0.00,,OVC047,0.00,VWS V13.01,2013-07-09 20:58:00,
2013-07-09 17:03:00,74.3,71.5,29.86,SSE,155,5.0,6.0,91,0.00,,BKN047,0.00,VWS V13.01,2013-07-09 21:03:00,
2013-07-09 17:08:00,74.3,71.8,29.86,SSE,152,6.0,7.0,92,0.00,,BKN047,0.00,VWS V13.01,2013-07-09 21:08:00,
2013-07-09 17:13:00,74.4,71.9,29.86,SSE,152,5.0,7.0,92,0.00,,BKN047,0.00,VWS V13.01,2013-07-09 21:13:00,
2013-07-09 17:18:00,74.6,71.8,29.85,SE,143,5.0,7.0,91,0.00,,BKN047,0.00,VWS V13.01,2013-07-09 21:18:00,
2013-07-09 17:23:00,74.6,71.8,29.85,SSE,150,5.0,8.0,91,0.00,,BKN047,0.00,VWS V13.01,2013-07-09 21:23:00,
2013-07-09 17:28:00,74.6,71.8,29.85,SSE,152,6.0,8.0,91,0.00,,BKN047,0.00,VWS V13.01,2013-07-09 21:28:00,
2013-07-09 17:33:00,74.5,71.7,29.85,SE,146,5.0,9.0,91,0.00,,BKN047,0.00,VWS V13.01,2013-07-09 21:33:00,
2013-07-09 17:38:00,74.5,71.7,29.85,SSE,160,6.0,8.0,91,0.00,,BKN047,0.00,VWS V13.01,2013-07-09 21:38:00,
2013-07-09 17:43:00,74.6,71.8,29.85,SSE,159,5.0,7.0,91,0.00,,BKN047,0.00,VWS V13.01,2013-07-09 21:43:00,
2013-07-09 17:48:00,74.5,71.7,29.85,SSE,157,5.0,7.0,91,0.00,,BKN047,0.00,VWS V13.01,2013-07-09 21:48:00,
2013-07-09 17:53:00,74.6,71.5,29.85,SSE,159,5.0,7.0,90,0.00,,BKN047,0.00,VWS V13.01,2013-07-09 21:53:00,
2013-07-09 17:58:00,74.7,71.6,29.85,SSE,148,5.0,8.0,90,0.00,,BKN047,0.00,VWS V13.01,2013-07-09 21:58:00,
2013-07-09 18:03:00,74.6,71.8,29.84,SSE,149,6.0,7.0,91,0.00,,FEW023,0.00,VWS V13.01,2013-07-09 22:03:00,
2013-07-09 18:08:00,74.6,71.8,29.85,SSE,153,5.0,8.0,91,0.00,,FEW023,0.00,VWS V13.01,2013-07-09 22:08:00,
2013-07-09 18:13:00,74.6,71.8,29.84,SSE,148,6.0,8.0,91,0.00,,FEW023,0.00,VWS V13.01,2013-07-09 22:13:00,
2013-07-09 18:18:00,74.6,71.8,29.84,SE,142,7.0,8.0,91,0.00,,FEW023,0.00,VWS V13.01,2013-07-09 22:18:00,
2013-07-09 18:23:00,74.7,71.9,29.84,SE,144,6.0,7.0,91,0.00,,FEW023,0.00,VWS V13.01,2013-07-09 22:23:00,
2013-07-09 18:28:00,74.6,71.8,29.84,SSE,150,6.0,8.0,91,0.00,,FEW023,0.00,VWS V13.01,2013-07-09 22:28:00,
2013-07-09 18:33:00,74.5,71.7,29.84,SSE,155,6.0,8.0,91,0.00,,FEW023,0.00,VWS V13.01,2013-07-09 22:33:00,
2013-07-09 18:38:00,74.5,71.7,29.84,SE,143,7.0,8.0,91,0.00,,FEW023,0.00,VWS V13.01,2013-07-09 22:38:00,
2013-07-09 18:43:00,74.5,72.0,29.84,SE,136,6.0,7.0,92,0.00,,FEW023,0.00,VWS V13.01,2013-07-09 22:43:00,
2013-07-09 18:48:00,74.5,72.0,29.84,SSE,153,5.0,7.0,92,0.00,,FEW023,0.00,VWS V13.01,2013-07-09 22:48:00,
2013-07-09 18:53:00,74.4,71.9,29.84,SSE,153,4.0,7.0,92,0.00,,FEW023,0.00,VWS V13.01,2013-07-09 22:53:00,
2013-07-09 18:58:00,74.4,71.9,29.84,SSE,157,4.0,5.0,92,0.00,,FEW023,0.00,VWS V13.01,2013-07-09 22:58:00,
2013-07-09 19:03:00,74.3,71.8,29.84,SSE,159,5.0,6.0,92,0.00,,FEW028,0.00,VWS V13.01,2013-07-09 23:03:00,
2013-07-09 19:08:00,74.4,71.9,29.84,SSE,153,5.0,6.0,92,0.00,,FEW028,0.00,VWS V13.01,2013-07-09 23:08:00,
2013-07-09 19:13:00,74.6,72.1,29.84,SSE,153,4.0,6.0,92,0.00,,FEW028,0.00,VWS V13.01,2013-07-09 23:13:00,
2013-07-09 19:18:00,74.6,72.1,29.83,SE,145,5.0,6.0,92,0.00,,FEW028,0.00,VWS V13.01,2013-07-09 23:18:00,
2013-07-09 19:24:00,74.6,72.1,29.83,SE,134,4.0,6.0,92,0.00,,FEW028,0.00,VWS V13.01,2013-07-09 23:24:00,
2013-07-09 19:29:00,74.8,72.6,29.83,SE,128,2.0,5.0,93,0.00,,FEW028,0.00,VWS V13.01,2013-07-09 23:29:00,
2013-07-09 19:34:00,74.8,72.3,29.83,SE,130,5.0,5.0,92,0.00,,FEW028,0.00,VWS V13.01,2013-07-09 23:34:00,
2013-07-09 19:39:00,74.9,72.4,29.83,SE,130,4.0,5.0,92,0.00,,FEW028,0.00,VWS V13.01,2013-07-09 23:39:00,
2013-07-09 19:44:00,74.9,72.4,29.83,SE,131,3.0,5.0,92,0.00,,FEW028,0.00,VWS V13.01,2013-07-09 23:44:00,
2013-07-09 19:49:00,74.9,72.4,29.83,SE,132,4.0,5.0,92,0.00,,FEW028,0.00,VWS V13.01,2013-07-09 23:49:00,
2013-07-09 19:54:00,74.9,72.4,29.82,SE,132,3.0,4.0,92,0.00,,FEW028,0.00,VWS V13.01,2013-07-09 23:54:00,
2013-07-09 19:59:00,74.8,72.3,29.82,SE,132,4.0,5.0,92,0.00,,FEW028,0.00,VWS V13.01,2013-07-09 23:59:00,
2013-07-09 20:04:00,74.7,72.2,29.82,SE,132,3.0,4.0,92,0.00,,CLR,0.00,VWS V13.01,2013-07-10 00:04:00,
2013-07-09 20:09:00,74.8,72.3,29.82,SE,132,2.0,4.0,92,0.00,,CLR,0.00,VWS V13.01,2013-07-10 00:09:00,
2013-07-09 20:14:00,74.7,72.2,29.82,SE,132,2.0,4.0,92,0.00,,CLR,0.00,VWS V13.01,2013-07-10 00:14:00,
2013-07-09 20:19:00,74.5,72.0,29.81,SE,132,3.0,3.0,92,0.00,,CLR,0.00,VWS V13.01,2013-07-10 00:19:00,
2013-07-09 20:24:00,74.4,72.2,29.81,SE,132,1.0,3.0,93,0.00,,CLR,0.00,VWS V13.01,2013-07-10 00:24:00,
2013-07-09 20:29:00,74.3,72.2,29.81,SE,132,3.0,3.0,93,0.00,,CLR,0.00,VWS V13.01,2013-07-10 00:29:00,
2013-07-09 20:34:00,74.2,72.1,29.80,SE,132,1.0,3.0,93,0.00,,CLR,0.00,VWS V13.01,2013-07-10 00:34:00,
2013-07-09 20:39:00,74.2,72.1,29.80,SE,132,2.0,3.0,93,0.00,,CLR,0.00,VWS V13.01,2013-07-10 00:39:00,
2013-07-09 20:44:00,74.1,71.9,29.80,SE,132,2.0,4.0,93,0.00,,CLR,0.00,VWS V13.01,2013-07-10 00:44:00,
2013-07-09 20:49:00,74.2,72.1,29.80,SE,132,1.0,2.0,93,0.00,,CLR,0.00,VWS V13.01,2013-07-10 00:49:00,
2013-07-09 20:54:00,74.2,72.1,29.79,SE,132,0.0,2.0,93,0.00,,CLR,0.00,VWS V13.01,2013-07-10 00:54:00,
2013-07-09 20:59:00,74.2,72.1,29.79,SE,132,2.0,2.0,93,0.00,,CLR,0.00,VWS V13.01,2013-07-10 00:59:00,
2013-07-09 21:04:00,74.1,71.9,29.79,SE,132,3.0,3.0,93,0.00,,OVC003,0.00,VWS V13.01,2013-07-10 01:04:00,
2013-07-09 21:09:00,74.2,72.1,29.79,SE,132,3.0,3.0,93,0.00,,OVC003,0.00,VWS V13.01,2013-07-10 01:09:00,
2013-07-09 21:14:00,74.3,72.2,29.79,SE,132,2.0,3.0,93,0.00,,OVC003,0.00,VWS V13.01,2013-07-10 01:14:00,
2013-07-09 21:19:00,74.3,71.8,29.79,SE,132,2.0,3.0,92,0.00,,OVC003,0.00,VWS V13.01,2013-07-10 01:19:00,
2013-07-09 21:24:00,74.5,72.3,29.79,SE,132,3.0,4.0,93,0.00,,OVC003,0.00,VWS V13.01,2013-07-10 01:24:00,
2013-07-09 21:29:00,74.5,72.3,29.79,SE,132,3.0,4.0,93,0.00,,OVC003,0.00,VWS V13.01,2013-07-10 01:29:00,
2013-07-09 21:34:00,74.4,72.2,29.79,SE,132,2.0,4.0,93,0.00,,OVC003,0.00,VWS V13.01,2013-07-10 01:34:00,
2013-07-09 21:39:00,74.2,72.1,29.79,SE,132,1.0,3.0,93,0.00,,OVC003,0.00,VWS V13.01,2013-07-10 01:39:00,
2013-07-09 21:44:00,74.2,72.1,29.79,SE,132,1.0,3.0,93,0.00,,OVC003,0.00,VWS V13.01,2013-07-10 01:44:00,
2013-07-09 21:49:00,74.0,71.8,29.78,SE,132,2.0,3.0,93,0.00,,OVC003,0.00,VWS V13.01,2013-07-10 01:49:00,
2013-07-09 21:54:00,74.0,71.8,29.79,SE,132,1.0,3.0,93,0.00,,OVC003,0.00,VWS V13.01,2013-07-10 01:54:00,
2013-07-09 21:59:00,74.1,72.3,29.79,SE,132,3.0,4.0,94,0.00,,OVC003,0.00,VWS V13.01,2013-07-10 01:59:00,
2013-07-09 22:04:00,74.0,71.8,29.79,SSE,150,4.0,5.0,93,0.00,,-RA,0.00,VWS V13.01,2013-07-10 02:04:00,
2013-07-09 22:10:00,74.1,72.3,29.79,SSE,155,4.0,5.0,94,0.00,,-RA,0.00,VWS V13.01,2013-07-10 02:10:00,
2013-07-09 22:15:00,74.3,72.5,29.79,SSE,157,4.0,5.0,94,0.00,,-RA,0.00,VWS V13.01,2013-07-10 02:15:00,
2013-07-09 22:20:00,74.3,72.5,29.79,SSE,163,5.0,6.0,94,0.00,,-RA,0.00,VWS V13.01,2013-07-10 02:20:00,
2013-07-09 22:25:00,74.3,72.5,29.79,South,183,6.0,7.0,94,0.00,,-RA,0.00,VWS V13.01,2013-07-10 02:25:00,
2013-07-09 22:30:00,74.4,72.2,29.79,South,184,4.0,6.0,93,0.00,,-RA,0.00,VWS V13.01,2013-07-10 02:30:00,
2013-07-09 22:35:00,74.5,72.3,29.79,South,184,4.0,5.0,93,0.00,,-RA,0.00,VWS V13.01,2013-07-10 02:35:00,
2013-07-09 22:40:00,74.4,71.9,29.78,South,184,4.0,5.0,92,0.00,,-RA,0.00,VWS V13.01,2013-07-10 02:40:00,
2013-07-09 22:45:00,74.4,72.2,29.78,South,184,3.0,5.0,93,0.00,,-RA,0.00,VWS V13.01,2013-07-10 02:45:00,
2013-07-09 22:50:00,74.4,71.9,29.78,South,184,3.0,4.0,92,0.00,,-RA,0.00,VWS V13.01,2013-07-10 02:50:00,
2013-07-09 22:55:00,74.5,72.3,29.77,SSE,154,4.0,5.0,93,0.00,,-RA,0.00,VWS V13.01,2013-07-10 02:55:00,
2013-07-09 23:00:00,74.6,72.4,29.77,SE,139,4.0,5.0,93,0.00,,-RA,0.00,VWS V13.01,2013-07-10 03:00:00,
2013-07-09 23:05:00,74.5,72.3,29.78,SE,139,2.0,4.0,93,0.00,,OVC100,0.00,VWS V13.01,2013-07-10 03:05:00,
2013-07-09 23:10:00,74.4,72.6,29.78,SE,140,3.0,4.0,94,0.00,,OVC100,0.00,VWS V13.01,2013-07-10 03:10:00,
2013-07-09 23:15:00,74.3,72.5,29.77,SE,140,4.0,5.0,94,0.00,,OVC100,0.00,VWS V13.01,2013-07-10 03:15:00,
2013-07-09 23:20:00,74.1,72.3,29.77,SE,140,2.0,4.0,94,0.00,,OVC100,0.00,VWS V13.01,2013-07-10 03:20:00,
2013-07-09 23:25:00,74.0,72.5,29.78,SE,142,4.0,4.0,95,0.00,,OVC100,0.00,VWS V13.01,2013-07-10 03:25:00,
2013-07-09 23:30:00,74.0,72.5,29.78,SE,145,4.0,5.0,95,0.00,,OVC100,0.00,VWS V13.01,2013-07-10 03:30:00,
2013-07-09 23:35:00,74.1,72.6,29.78,SSE,155,5.0,6.0,95,0.00,,OVC100,0.00,VWS V13.01,2013-07-10 03:35:00,
2013-07-09 23:40:00,74.2,72.7,29.78,SSE,159,5.0,6.0,95,0.00,,OVC100,0.00,VWS V13.01,2013-07-10 03:40:00,
2013-07-09 23:45:00,74.3,72.8,29.78,SSE,164,4.0,6.0,95,0.00,,OVC100,0.00,VWS V13.01,2013-07-10 03:45:00,
2013-07-09 23:50:00,74.3,72.8,29.77,SSE,165,3.0,6.0,95,0.00,,OVC100,0.00,VWS V13.01,2013-07-10 03:50:00,
2013-07-09 23:55:00,74.3,72.8,29.77,SSE,165,3.0,5.0,95,0.00,,OVC100,0.00,VWS V13.01,2013-07-10 03:55:00,